createdAt,value
2022-12-08T00:01:11.777Z,4.90
2022-12-08T00:03:38.727Z,4.90
2022-12-08T00:06:31.514Z,5.00
2022-12-08T00:09:16.633Z,4.90
2022-12-08T00:11:45.595Z,4.90
2022-12-08T00:14:12.201Z,4.90
2022-12-08T00:16:38.811Z,4.90
2022-12-08T00:19:05.368Z,4.90
2022-12-08T00:21:34.371Z,4.90
2022-12-08T00:24:00.982Z,5.00
2022-12-08T00:26:27.533Z,4.90
2022-12-08T00:28:56.256Z,4.90
2022-12-08T00:31:22.840Z,4.90
2022-12-08T00:33:49.478Z,4.90
2022-12-08T00:36:16.067Z,4.90
2022-12-08T00:38:44.648Z,4.90
2022-12-08T00:41:17.896Z,4.90
2022-12-08T00:43:44.482Z,4.90
2022-12-08T00:46:11.906Z,4.90
2022-12-08T00:48:38.704Z,4.80
2022-12-08T00:51:05.349Z,4.80
2022-12-08T00:53:32.276Z,4.80
2022-12-08T00:55:58.906Z,4.80
2022-12-08T00:58:25.462Z,4.80
2022-12-08T01:00:54.420Z,4.80
2022-12-08T01:03:21.063Z,4.80
2022-12-08T01:05:52.468Z,4.80
2022-12-08T01:08:19.033Z,4.80
2022-12-08T01:10:45.622Z,4.80
2022-12-08T01:13:12.257Z,4.80
2022-12-08T01:15:38.824Z,4.80
2022-12-08T01:18:05.471Z,4.80
2022-12-08T01:20:32.018Z,4.80
2022-12-08T01:23:00.723Z,4.80
2022-12-08T01:25:27.349Z,4.80
2022-12-08T01:27:53.876Z,4.80
2022-12-08T01:30:23.364Z,4.80
2022-12-08T01:32:52.133Z,4.80
2022-12-08T01:35:20.915Z,4.80
2022-12-08T01:37:47.485Z,4.70
2022-12-08T01:40:14.043Z,4.80
2022-12-08T01:42:42.762Z,4.80
2022-12-08T01:45:29.706Z,4.80
2022-12-08T01:48:00.956Z,4.70
2022-12-08T01:50:27.990Z,4.70
2022-12-08T01:53:08.727Z,4.70
2022-12-08T01:55:40.686Z,4.70
2022-12-08T01:58:13.710Z,4.70
2022-12-08T02:00:42.686Z,4.80
2022-12-08T02:03:15.909Z,4.80
2022-12-08T02:05:42.584Z,4.80
2022-12-08T02:08:11.068Z,4.80
2022-12-08T02:10:41.207Z,4.80
2022-12-08T02:13:09.596Z,4.80
2022-12-08T02:15:47.962Z,4.80
2022-12-08T02:18:30.024Z,4.80
2022-12-08T02:21:16.899Z,4.80
2022-12-08T02:23:50.484Z,4.80
2022-12-08T02:26:19.295Z,4.80
2022-12-08T02:28:51.577Z,4.80
2022-12-08T02:31:24.045Z,4.80
2022-12-08T02:33:59.326Z,4.80
2022-12-08T02:36:48.322Z,4.80
2022-12-08T02:39:17.578Z,4.80
2022-12-08T02:41:44.076Z,4.80
2022-12-08T02:44:25.567Z,4.80
2022-12-08T02:47:01.993Z,4.80
2022-12-08T02:49:32.297Z,4.80
2022-12-08T02:52:05.936Z,4.80
2022-12-08T02:54:32.816Z,4.80
2022-12-08T02:57:18.128Z,4.80
2022-12-08T02:59:53.494Z,4.80
2022-12-08T03:02:20.059Z,4.80
2022-12-08T03:04:53.049Z,4.70
2022-12-08T03:07:25.557Z,4.80
2022-12-08T03:09:58.688Z,4.80
2022-12-08T03:12:25.268Z,4.70
2022-12-08T03:14:55.293Z,4.70
2022-12-08T03:17:23.470Z,4.70
2022-12-08T03:19:54.299Z,4.70
2022-12-08T03:22:22.074Z,4.70
2022-12-08T03:24:49.318Z,4.70
2022-12-08T03:27:22.064Z,4.70
2022-12-08T03:29:49.881Z,4.70
2022-12-08T03:32:36.674Z,4.70
2022-12-08T03:35:05.517Z,4.70
2022-12-08T03:37:36.465Z,4.70
2022-12-08T03:40:04.591Z,4.70
2022-12-08T03:42:31.397Z,4.70
2022-12-08T03:44:57.915Z,4.70
2022-12-08T03:47:24.554Z,4.70
2022-12-08T03:49:51.161Z,4.70
2022-12-08T03:52:22.389Z,4.70
2022-12-08T03:54:48.929Z,4.70
2022-12-08T03:57:15.493Z,4.70
2022-12-08T03:59:42.079Z,4.70
2022-12-08T04:02:08.638Z,4.80
2022-12-08T04:04:37.463Z,4.70
2022-12-08T04:07:06.283Z,4.70
2022-12-08T04:09:32.864Z,4.70
2022-12-08T04:12:01.663Z,4.70
2022-12-08T04:14:28.223Z,4.70
2022-12-08T04:16:54.750Z,4.60
2022-12-08T04:19:21.283Z,4.60
2022-12-08T04:21:47.979Z,4.60
2022-12-08T04:24:16.867Z,4.60
2022-12-08T04:26:43.388Z,4.60
2022-12-08T04:29:09.924Z,4.70
2022-12-08T04:31:36.535Z,4.60
2022-12-08T04:34:03.167Z,4.60
2022-12-08T04:36:29.709Z,4.60
2022-12-08T04:38:58.544Z,4.60
2022-12-08T04:41:25.116Z,4.60
2022-12-08T04:43:51.646Z,4.60
2022-12-08T04:46:18.334Z,4.60
2022-12-08T04:48:47.150Z,4.70
2022-12-08T04:51:20.428Z,4.70
2022-12-08T04:53:47.305Z,4.70
2022-12-08T04:56:17.860Z,4.70
2022-12-08T04:58:44.464Z,4.70
2022-12-08T05:01:11.159Z,4.70
2022-12-08T05:03:39.099Z,4.70
2022-12-08T05:06:05.753Z,4.70
2022-12-08T05:08:32.433Z,4.70
2022-12-08T05:11:03.556Z,4.70
2022-12-08T05:13:30.296Z,4.60
2022-12-08T05:16:07.622Z,4.60
2022-12-08T05:18:34.551Z,4.60
2022-12-08T05:21:01.232Z,4.60
2022-12-08T05:23:32.713Z,4.60
2022-12-08T05:25:59.414Z,4.60
2022-12-08T05:28:41.400Z,4.70
2022-12-08T05:31:11.238Z,4.60
2022-12-08T05:33:37.824Z,4.70
2022-12-08T05:36:04.507Z,4.60
2022-12-08T05:38:31.031Z,4.60
2022-12-08T05:40:57.695Z,4.60
2022-12-08T05:43:24.535Z,4.60
2022-12-08T05:45:51.139Z,4.60
2022-12-08T05:48:17.744Z,4.60
2022-12-08T05:50:47.958Z,4.70
2022-12-08T05:53:17.530Z,4.70
2022-12-08T05:55:44.337Z,4.70
2022-12-08T05:58:17.688Z,4.70
2022-12-08T06:00:44.486Z,4.70
2022-12-08T06:03:14.226Z,4.70
2022-12-08T06:05:41.557Z,4.70
2022-12-08T06:08:08.266Z,4.60
2022-12-08T06:10:37.559Z,4.60
2022-12-08T06:13:04.125Z,4.60
2022-12-08T06:15:30.691Z,4.60
2022-12-08T06:17:57.245Z,4.70
2022-12-08T06:20:26.166Z,4.70
2022-12-08T06:22:57.644Z,4.70
2022-12-08T06:25:26.408Z,4.70
2022-12-08T06:27:53.015Z,4.70
2022-12-08T06:30:21.825Z,4.70
2022-12-08T06:32:48.349Z,4.70
2022-12-08T06:35:14.936Z,4.70
2022-12-08T06:37:41.452Z,4.70
2022-12-08T06:40:10.407Z,4.70
2022-12-08T06:42:47.098Z,4.70
2022-12-08T06:45:17.738Z,4.80
2022-12-08T06:47:44.552Z,4.80
2022-12-08T06:50:11.737Z,4.80
2022-12-08T06:52:47.217Z,4.80
2022-12-08T06:55:42.401Z,4.80
2022-12-08T06:58:05.661Z,4.80
2022-12-08T07:00:32.248Z,4.80
2022-12-08T07:02:59.188Z,4.80
2022-12-08T07:05:25.914Z,4.80
2022-12-08T07:07:52.549Z,4.80
2022-12-08T07:10:19.167Z,4.80
2022-12-08T07:12:45.740Z,4.80
2022-12-08T07:15:14.775Z,4.80
2022-12-08T07:17:41.371Z,4.80
2022-12-08T07:20:10.363Z,4.80
2022-12-08T07:22:36.917Z,4.80
2022-12-08T07:25:05.875Z,4.80
2022-12-08T07:27:34.923Z,4.80
2022-12-08T07:30:01.561Z,4.80
2022-12-08T07:32:28.220Z,4.80
2022-12-08T07:34:57.202Z,4.80
2022-12-08T07:37:25.537Z,4.80
2022-12-08T07:39:54.648Z,4.80
2022-12-08T07:42:21.207Z,4.80
2022-12-08T07:44:49.948Z,4.70
2022-12-08T07:47:16.502Z,4.80
2022-12-08T07:49:43.063Z,4.70
2022-12-08T07:52:09.651Z,4.70
2022-12-08T07:54:38.625Z,4.70
2022-12-08T07:57:06.075Z,4.80
2022-12-08T07:59:32.859Z,4.80
2022-12-08T08:02:21.382Z,4.80
2022-12-08T08:04:51.862Z,4.80
2022-12-08T08:07:18.469Z,4.80
2022-12-08T08:09:45.751Z,4.80
2022-12-08T08:12:38.957Z,4.80
2022-12-08T08:15:02.437Z,4.90
2022-12-08T08:17:29.634Z,4.90
2022-12-08T08:19:56.613Z,4.80
2022-12-08T08:22:24.122Z,4.90
2022-12-08T08:24:50.675Z,4.90
2022-12-08T08:27:17.295Z,4.90
2022-12-08T08:29:43.859Z,4.90
2022-12-08T08:32:13.856Z,4.90
2022-12-08T08:34:40.459Z,4.90
2022-12-08T08:37:09.293Z,4.90
2022-12-08T08:39:36.012Z,4.90
2022-12-08T08:42:02.598Z,4.90
2022-12-08T08:44:31.598Z,5.00
2022-12-08T08:46:58.158Z,4.90
2022-12-08T08:49:24.777Z,4.90
2022-12-08T08:51:51.419Z,4.90
2022-12-08T08:54:17.988Z,4.90
2022-12-08T08:56:44.576Z,4.90
2022-12-08T08:59:11.319Z,5.00
2022-12-08T09:01:37.958Z,5.00
2022-12-08T09:04:04.717Z,5.00
2022-12-08T09:06:31.418Z,5.00
2022-12-08T09:08:58.022Z,5.00
2022-12-08T09:11:24.614Z,5.00
2022-12-08T09:13:53.924Z,5.00
2022-12-08T09:16:20.931Z,5.00
2022-12-08T09:18:50.444Z,5.00
2022-12-08T09:21:22.851Z,5.00
2022-12-08T09:23:53.351Z,5.00
2022-12-08T09:26:23.336Z,5.10
2022-12-08T09:28:50.722Z,5.00
2022-12-08T09:31:18.024Z,5.10
2022-12-08T09:33:47.595Z,5.10
2022-12-08T09:36:14.272Z,5.10
2022-12-08T09:38:41.577Z,5.10
2022-12-08T09:41:20.516Z,5.10
2022-12-08T09:44:05.956Z,5.10
2022-12-08T09:46:35.994Z,5.10
2022-12-08T09:49:03.301Z,5.10
2022-12-08T09:51:38.012Z,5.10
2022-12-08T09:54:12.515Z,5.20
2022-12-08T09:56:41.800Z,5.20
2022-12-08T09:59:08.326Z,5.20
2022-12-08T10:01:41.547Z,5.20
2022-12-08T10:04:34.289Z,5.20
2022-12-08T10:07:07.357Z,5.20
2022-12-08T10:09:52.572Z,5.20
2022-12-08T10:12:33.963Z,5.20
2022-12-08T10:15:19.480Z,5.20
2022-12-08T10:17:50.928Z,5.20
2022-12-08T10:20:22.616Z,5.20
2022-12-08T10:22:55.331Z,5.20
2022-12-08T10:25:36.269Z,5.20
2022-12-08T10:28:02.880Z,5.20
2022-12-08T10:30:31.817Z,5.20
2022-12-08T10:33:01.163Z,5.20
2022-12-08T10:35:42.664Z,5.20
2022-12-08T10:38:16.583Z,5.20
2022-12-08T10:40:45.703Z,5.20
2022-12-08T10:43:18.722Z,5.30
2022-12-08T10:45:45.350Z,5.30
2022-12-08T10:48:11.901Z,5.30
2022-12-08T10:50:45.263Z,5.30
2022-12-08T10:53:12.417Z,5.30
2022-12-08T10:55:40.909Z,5.30
2022-12-08T10:58:23.233Z,5.40
2022-12-08T11:00:54.525Z,5.40
2022-12-08T11:03:32.497Z,5.40
2022-12-08T11:06:03.957Z,5.50
2022-12-08T11:08:33.884Z,5.50
2022-12-08T11:11:00.467Z,5.50
2022-12-08T11:13:27.502Z,5.50
2022-12-08T11:15:54.986Z,5.50
2022-12-08T11:18:24.458Z,5.50
2022-12-08T11:21:06.917Z,5.60
2022-12-08T11:23:35.316Z,5.60
2022-12-08T11:26:22.128Z,5.60
2022-12-08T11:28:48.712Z,5.70
2022-12-08T11:31:21.311Z,5.70
2022-12-08T11:33:51.498Z,5.70
2022-12-08T11:36:20.420Z,5.70
2022-12-08T11:38:52.980Z,5.70
2022-12-08T11:41:21.015Z,5.70
2022-12-08T11:43:50.588Z,5.70
2022-12-08T11:46:20.239Z,5.70
2022-12-08T11:48:54.684Z,5.60
2022-12-08T11:51:32.565Z,5.60
2022-12-08T11:54:11.589Z,5.60
2022-12-08T11:56:40.628Z,5.60
2022-12-08T11:59:13.046Z,5.60
2022-12-08T12:01:42.728Z,5.60
2022-12-08T12:04:16.437Z,5.60
2022-12-08T12:07:01.881Z,5.60
2022-12-08T12:09:34.472Z,5.60
2022-12-08T12:12:16.489Z,5.60
2022-12-08T12:14:49.137Z,5.60
2022-12-08T12:17:39.089Z,5.60
2022-12-08T12:20:12.060Z,5.60
2022-12-08T12:22:41.024Z,5.70
2022-12-08T12:25:16.182Z,5.70
2022-12-08T12:27:44.086Z,5.70
2022-12-08T12:30:20.237Z,5.70
2022-12-08T12:32:57.678Z,5.70
2022-12-08T12:35:35.865Z,5.70
2022-12-08T12:38:04.529Z,5.70
2022-12-08T12:40:36.358Z,5.70
2022-12-08T12:43:02.848Z,5.60
2022-12-08T12:45:30.922Z,5.60
2022-12-08T12:48:00.552Z,5.60
2022-12-08T12:50:33.593Z,5.60
2022-12-08T12:53:12.360Z,5.60
2022-12-08T12:55:46.442Z,5.60
2022-12-08T12:58:20.832Z,5.60
2022-12-08T13:00:47.413Z,5.60
2022-12-08T13:03:17.063Z,5.50
2022-12-08T13:05:51.539Z,5.60
2022-12-08T13:08:26.013Z,5.50
2022-12-08T13:11:01.765Z,5.50
2022-12-08T13:13:31.250Z,5.60
2022-12-08T13:16:15.454Z,5.50
2022-12-08T13:18:52.871Z,5.50
2022-12-08T13:21:21.032Z,5.50
2022-12-08T13:23:51.083Z,5.40
2022-12-08T13:26:20.092Z,5.40
2022-12-08T13:28:58.739Z,5.30
2022-12-08T13:31:41.661Z,5.30
2022-12-08T13:34:23.122Z,5.30
2022-12-08T13:37:01.039Z,5.30
2022-12-08T13:39:50.941Z,5.30
2022-12-08T13:42:25.001Z,5.30
2022-12-08T13:45:59.127Z,5.20
2022-12-08T13:48:30.098Z,5.20
2022-12-08T13:55:01.390Z,5.20
2022-12-08T13:57:10.181Z,5.20
2022-12-08T13:59:43.281Z,5.20
2022-12-08T14:02:15.965Z,5.20
2022-12-08T14:07:38.643Z,5.20
2022-12-08T14:10:11.755Z,5.20
2022-12-08T14:12:39.155Z,5.30
2022-12-08T14:15:06.791Z,5.20
2022-12-08T14:17:33.830Z,5.20
2022-12-08T14:20:01.899Z,5.20
2022-12-08T14:22:33.188Z,5.10
2022-12-08T14:24:59.869Z,5.10
2022-12-08T14:27:27.324Z,5.20
2022-12-08T14:29:57.840Z,5.20
2022-12-08T14:32:27.236Z,5.20
2022-12-08T14:34:54.950Z,5.10
2022-12-08T14:37:22.283Z,5.10
2022-12-08T14:39:51.895Z,5.10
2022-12-08T14:42:23.376Z,5.10
2022-12-08T14:44:55.637Z,5.10
2022-12-08T14:47:24.477Z,5.10
2022-12-08T14:49:51.593Z,5.10
2022-12-08T14:52:18.217Z,5.10
2022-12-08T14:54:45.448Z,5.20
2022-12-08T14:57:14.035Z,5.20
2022-12-08T14:59:41.182Z,5.20
2022-12-08T15:02:21.694Z,5.20
2022-12-08T15:04:49.992Z,5.20
2022-12-08T15:07:18.107Z,5.20
2022-12-08T15:09:46.030Z,5.20
2022-12-08T15:12:15.041Z,5.20
2022-12-08T15:14:41.579Z,5.20
2022-12-08T15:17:26.798Z,5.10
2022-12-08T15:19:57.070Z,5.20
2022-12-08T15:22:24.331Z,5.10
2022-12-08T15:24:50.908Z,5.10
2022-12-08T15:27:18.901Z,5.10
2022-12-08T15:29:46.251Z,5.10
2022-12-08T15:32:14.562Z,5.20
2022-12-08T15:34:41.225Z,5.20
2022-12-08T15:37:12.954Z,5.20
2022-12-08T15:39:41.670Z,5.20
2022-12-08T15:42:11.738Z,5.20
2022-12-08T15:44:38.486Z,5.20
2022-12-08T15:47:05.535Z,5.20
2022-12-08T15:49:32.292Z,5.20
2022-12-08T15:52:10.617Z,5.20
2022-12-08T15:54:37.544Z,5.10
2022-12-08T15:57:19.151Z,5.10
2022-12-08T15:59:46.930Z,5.10
2022-12-08T16:02:22.326Z,5.10
2022-12-08T16:07:38.018Z,5.20
2022-12-08T16:10:06.130Z,5.20
2022-12-08T16:15:55.146Z,5.20
2022-12-08T16:18:26.688Z,5.20
2022-12-08T16:23:44.613Z,5.00
2022-12-08T16:26:54.484Z,4.90
2022-12-08T16:29:07.789Z,4.90
2022-12-08T16:31:34.410Z,4.80
2022-12-08T16:34:01.033Z,4.80
2022-12-08T16:36:27.659Z,4.70
2022-12-08T16:38:54.245Z,4.60
2022-12-08T16:41:41.778Z,4.60
2022-12-08T16:44:10.756Z,4.60
2022-12-08T16:46:37.414Z,4.60
2022-12-08T16:49:04.593Z,4.50
2022-12-08T16:51:31.143Z,4.50
2022-12-08T16:54:00.229Z,4.40
2022-12-08T16:56:32.610Z,4.40
2022-12-08T16:59:00.656Z,4.40
2022-12-08T17:01:27.361Z,4.40
2022-12-08T17:06:45.215Z,4.30
2022-12-08T17:09:11.861Z,4.30
2022-12-08T17:11:43.003Z,4.30
2022-12-08T17:14:12.919Z,4.30
2022-12-08T17:16:41.994Z,4.40
2022-12-08T17:19:09.092Z,4.30
2022-12-08T17:21:35.786Z,4.30
2022-12-08T17:24:07.322Z,4.40
2022-12-08T17:26:34.171Z,4.40
2022-12-08T17:29:04.298Z,4.40
2022-12-08T17:31:32.148Z,4.40
2022-12-08T17:34:02.874Z,4.40
2022-12-08T17:36:29.511Z,4.40
2022-12-08T17:38:57.067Z,4.40
2022-12-08T17:41:23.590Z,4.40
2022-12-08T17:43:50.262Z,4.30
2022-12-08T17:46:18.117Z,4.40
2022-12-08T17:48:44.742Z,4.30
2022-12-08T17:51:11.549Z,4.40
2022-12-08T17:53:40.757Z,4.40
2022-12-08T17:56:14.286Z,4.40
2022-12-08T17:58:40.818Z,4.40
2022-12-08T18:01:08.540Z,4.40
2022-12-08T18:03:35.447Z,4.40
2022-12-08T18:06:09.123Z,4.30
2022-12-08T18:08:38.374Z,4.40
2022-12-08T18:11:05.217Z,4.40
2022-12-08T18:13:31.844Z,4.40
2022-12-08T18:16:00.656Z,4.30
2022-12-08T18:18:27.357Z,4.30
2022-12-08T18:20:53.892Z,4.30
2022-12-08T18:23:20.497Z,4.30
2022-12-08T18:25:47.442Z,4.20
2022-12-08T18:28:14.039Z,4.30
2022-12-08T18:30:42.886Z,4.20
2022-12-08T18:33:09.548Z,4.30
2022-12-08T18:35:38.292Z,4.20
2022-12-08T18:38:04.905Z,4.20
2022-12-08T18:40:31.489Z,4.20
2022-12-08T18:42:58.063Z,4.20
2022-12-08T18:45:29.424Z,4.20
2022-12-08T18:47:56.445Z,4.20
2022-12-08T18:50:23.077Z,4.20
2022-12-08T18:52:49.671Z,4.20
2022-12-08T18:55:16.257Z,4.20
2022-12-08T18:57:45.244Z,4.30
2022-12-08T19:00:13.423Z,4.20
2022-12-08T19:02:40.517Z,4.20
2022-12-08T19:05:10.170Z,4.10
2022-12-08T19:07:36.863Z,4.10
2022-12-08T19:10:04.182Z,4.10
2022-12-08T19:12:31.039Z,4.00
2022-12-08T19:14:57.807Z,4.00
2022-12-08T19:17:25.817Z,3.90
2022-12-08T19:19:52.460Z,3.90
2022-12-08T19:22:19.017Z,3.80
2022-12-08T19:24:48.067Z,3.80
2022-12-08T19:27:14.661Z,3.80
2022-12-08T19:29:41.225Z,3.80
2022-12-08T19:32:07.855Z,3.80
2022-12-08T19:34:34.471Z,3.80
2022-12-08T19:37:03.659Z,3.90
2022-12-08T19:39:48.583Z,3.90
2022-12-08T19:42:34.796Z,3.80
2022-12-08T19:45:04.170Z,3.80
2022-12-08T19:47:30.832Z,3.70
2022-12-08T19:50:17.483Z,3.80
2022-12-08T19:52:46.649Z,3.80
2022-12-08T19:55:13.473Z,3.80
2022-12-08T19:57:40.089Z,3.80
2022-12-08T20:00:07.922Z,3.90
2022-12-08T20:02:36.338Z,3.90
2022-12-08T20:05:05.568Z,3.90
2022-12-08T20:07:34.237Z,3.90
2022-12-08T20:10:02.438Z,3.90
2022-12-08T20:12:29.242Z,3.90
2022-12-08T20:14:55.788Z,3.90
2022-12-08T20:17:24.779Z,4.00
2022-12-08T20:19:53.508Z,3.90
2022-12-08T20:22:20.097Z,3.90
2022-12-08T20:24:52.241Z,3.90
2022-12-08T20:27:23.768Z,3.80
2022-12-08T20:29:50.942Z,3.80
2022-12-08T20:32:17.511Z,3.80
2022-12-08T20:34:44.145Z,3.70
2022-12-08T20:37:13.159Z,3.60
2022-12-08T20:39:39.727Z,3.60
2022-12-08T20:42:06.366Z,3.50
2022-12-08T20:44:33.249Z,3.40
2022-12-08T20:46:59.866Z,3.40
2022-12-08T20:49:31.292Z,3.40
2022-12-08T20:52:00.903Z,3.30
2022-12-08T20:54:28.096Z,3.30
2022-12-08T20:56:54.757Z,3.30
2022-12-08T20:59:21.364Z,3.40
2022-12-08T21:01:48.060Z,3.40
2022-12-08T21:04:14.866Z,3.40
2022-12-08T21:06:41.585Z,3.40
2022-12-08T21:09:08.709Z,3.50
2022-12-08T21:11:35.890Z,3.50
2022-12-08T21:14:02.709Z,3.50
2022-12-08T21:16:31.855Z,3.40
2022-12-08T21:18:58.596Z,3.40
2022-12-08T21:21:25.408Z,3.40
2022-12-08T21:23:54.253Z,3.30
2022-12-08T21:26:26.007Z,3.40
2022-12-08T21:28:54.667Z,3.50
2022-12-08T21:31:21.883Z,3.50
2022-12-08T21:33:51.361Z,3.60
2022-12-08T21:36:19.148Z,3.60
2022-12-08T21:38:49.342Z,3.60
2022-12-08T21:41:37.605Z,3.60
2022-12-08T21:44:04.810Z,3.60
2022-12-08T21:46:31.697Z,3.60
2022-12-08T21:48:58.421Z,3.60
2022-12-08T21:51:28.039Z,3.60
2022-12-08T21:53:57.327Z,3.60
2022-12-08T21:56:23.910Z,3.60
2022-12-08T21:58:50.723Z,3.60
2022-12-08T22:01:17.456Z,3.60
2022-12-08T22:03:44.214Z,3.60
2022-12-08T22:06:12.299Z,3.60
2022-12-08T22:08:39.644Z,3.60
2022-12-08T22:11:07.045Z,3.60
2022-12-08T22:13:34.657Z,3.60
2022-12-08T22:16:02.604Z,3.60
2022-12-08T22:18:29.449Z,3.60
2022-12-08T22:20:58.809Z,3.60
2022-12-08T22:23:27.985Z,3.60
2022-12-08T22:26:01.806Z,3.60
2022-12-08T22:28:30.711Z,3.60
2022-12-08T22:30:57.443Z,3.50
2022-12-08T22:33:26.389Z,3.50
2022-12-08T22:35:56.892Z,3.60
2022-12-08T22:38:23.450Z,3.60
2022-12-08T22:40:51.372Z,3.60
2022-12-08T22:43:22.853Z,3.60
2022-12-08T22:45:49.686Z,3.60
2022-12-08T22:48:18.637Z,3.60
2022-12-08T22:50:45.303Z,3.50
2022-12-08T22:53:12.076Z,3.40
2022-12-08T22:55:47.467Z,3.40
2022-12-08T22:58:14.506Z,3.40
2022-12-08T23:00:41.233Z,3.50
2022-12-08T23:03:08.178Z,3.50
2022-12-08T23:05:36.309Z,3.50
2022-12-08T23:08:03.955Z,3.50
2022-12-08T23:10:31.281Z,3.50
2022-12-08T23:13:03.468Z,3.50
2022-12-08T23:15:30.728Z,3.50
2022-12-08T23:17:59.486Z,3.50
2022-12-08T23:20:26.237Z,3.60
2022-12-08T23:22:55.263Z,3.60
2022-12-08T23:25:22.082Z,3.60
2022-12-08T23:27:48.675Z,3.60
2022-12-08T23:30:18.601Z,3.50
2022-12-08T23:32:47.381Z,3.50
2022-12-08T23:35:16.288Z,3.50
2022-12-08T23:37:42.890Z,3.50
2022-12-08T23:40:12.253Z,3.50
2022-12-08T23:42:39.015Z,3.50
2022-12-08T23:45:08.546Z,3.50
2022-12-08T23:47:35.764Z,3.50
2022-12-08T23:50:02.821Z,3.50
2022-12-08T23:52:29.562Z,3.60
2022-12-08T23:54:56.782Z,3.60
2022-12-08T23:57:23.415Z,3.50
2022-12-08T23:59:50.114Z,3.50
